Terminal Aerodrome Forecast
Issued by NWS Jackson, KY

Home | Current Version | Previous Version | Text Only | Print | Product List | Glossary On
Versions: 1 2 3 4 5 6 7 8 9 10 11 12
430
FTUS43 KJKL 261720
TAFJKL
TAF
KJKL 261720Z 2618/2718 28005KT P6SM FEW080 FEW200
     FM270200 00000KT P6SM SCT070 BKN150
     FM271000 31003KT P6SM VCSH SCT040 BKN100=

USA.gov is the U.S. government's official web portal to all federal, state and local government web resources and services.